Time;durP1;ratioP1;P1;durP2;ratioP2;P2;SDS_P1;SDS_P2;PMS_P1;PMS_P2;Temp;Humidity;BMP_temperature;BMP_pressure;BME280_temperature;BME280_humidity;BME280_pressure;Samples;Min_cycle;Max_cycle;Signal;HPM_P1;HPM_P2
2021/06/07 00:00:32;;;;;;;;;11.33;11.00;;;;;-147.17;100.00;59696.56;5032731;28;51974;-51
2021/06/07 00:02:57;;;;;;;;;13.67;12.33;;;;;-147.17;100.00;59696.56;5031908;28;51044;-51
2021/06/07 00:05:24;;;;;;;;;13.00;12.33;;;;;-147.17;100.00;59696.56;5027529;28;51152;-50
2021/06/07 00:07:50;;;;;;;;;13.75;13.25;;;;;-147.17;100.00;59696.56;5061422;28;51158;-50
2021/06/07 00:10:17;;;;;;;;;12.00;11.50;;;;;-147.17;100.00;59696.56;5030040;28;52892;-48
2021/06/07 00:12:43;;;;;;;;;11.67;11.67;;;;;-147.17;100.00;59696.56;5031873;28;51178;-49
2021/06/07 00:15:12;;;;;;;;;11.67;11.00;;;;;-147.17;100.00;59696.56;5031755;28;50976;-51
2021/06/07 00:17:39;;;;;;;;;10.00;10.00;;;;;-147.17;100.00;59696.56;5031370;28;51329;-46
2021/06/07 00:20:11;;;;;;;;;13.00;12.33;;;;;-147.17;100.00;59696.56;5031852;28;51868;-52
2021/06/07 00:22:37;;;;;;;;;12.67;12.67;;;;;-147.17;100.00;59696.56;5030820;28;51102;-51
2021/06/07 00:25:08;;;;;;;;;11.75;11.50;;;;;-147.17;100.00;59696.56;5032394;28;51998;-50
2021/06/07 00:27:33;;;;;;;;;11.00;11.00;;;;;-147.17;100.00;59696.56;5031515;28;51304;-50
2021/06/07 00:29:59;;;;;;;;;12.33;11.33;;;;;-147.17;100.00;59696.56;5031159;28;52328;-51
2021/06/07 00:32:24;;;;;;;;;11.00;11.00;;;;;-147.17;100.00;59696.56;5030996;28;51112;-51
2021/06/07 00:34:50;;;;;;;;;10.33;9.33;;;;;-147.17;100.00;59696.56;5031933;28;51111;-50
2021/06/07 00:37:15;;;;;;;;;10.00;10.00;;;;;-147.17;100.00;59696.56;5027980;28;51099;-47
2021/06/07 00:39:41;;;;;;;;;11.33;10.33;;;;;-147.17;100.00;59696.56;5031743;28;51887;-47
2021/06/07 00:42:07;;;;;;;;;12.67;11.00;;;;;-147.17;100.00;59696.56;5030304;28;51032;-49
2021/06/07 00:44:32;;;;;;;;;12.00;12.00;;;;;-147.17;100.00;59696.56;5032846;28;51128;-48
2021/06/07 00:46:57;;;;;;;;;10.33;9.67;;;;;-147.17;100.00;59696.56;5031406;28;50984;-50
2021/06/07 00:49:24;;;;;;;;;10.67;10.67;;;;;-147.17;100.00;59696.56;5027686;28;51161;-51
2021/06/07 00:51:49;;;;;;;;;11.33;11.33;;;;;-147.17;100.00;59696.56;5032262;28;50930;-48
2021/06/07 00:54:16;;;;;;;;;12.67;12.00;;;;;-147.17;100.00;59696.56;5031062;28;51015;-51
2021/06/07 00:56:42;;;;;;;;;11.00;10.67;;;;;-147.17;100.00;59696.56;5029919;28;51403;-48
2021/06/07 00:59:09;;;;;;;;;10.00;10.00;;;;;-147.17;100.00;59696.56;5030989;28;51181;-46
2021/06/07 01:01:35;;;;;;;;;10.00;10.00;;;;;-147.17;100.00;59696.56;5031829;28;51202;-50
2021/06/07 01:04:01;;;;;;;;;11.33;10.00;;;;;-147.17;100.00;59696.56;5030507;28;51050;-47
2021/06/07 01:06:28;;;;;;;;;9.33;9.33;;;;;-147.17;100.00;59696.56;5029902;28;50999;-47
2021/06/07 01:08:53;;;;;;;;;10.00;10.00;;;;;-147.17;100.00;59696.56;5025801;28;50966;-52
2021/06/07 01:11:21;;;;;;;;;10.67;9.67;;;;;-147.17;100.00;59696.56;5022676;28;51006;-51
2021/06/07 01:13:47;;;;;;;;;12.00;11.00;;;;;-147.17;100.00;59696.56;5030777;28;51305;-47
2021/06/07 01:16:13;;;;;;;;;11.67;11.00;;;;;-147.17;100.00;59696.56;5029552;28;51092;-49
2021/06/07 01:18:39;;;;;;;;;13.33;12.67;;;;;-147.17;100.00;59696.56;5018631;28;50987;-49
2021/06/07 01:21:11;;;;;;;;;9.00;9.00;;;;;-147.17;100.00;59696.56;5031038;28;51127;-47
2021/06/07 01:23:38;;;;;;;;;10.33;9.67;;;;;-147.17;100.00;59696.56;5030787;28;51206;-49
2021/06/07 01:26:06;;;;;;;;;11.00;10.67;;;;;-147.17;100.00;59696.56;5023557;28;51045;-48
2021/06/07 01:28:32;;;;;;;;;11.33;11.33;;;;;-147.17;100.00;59696.56;5029653;28;51984;-49
2021/06/07 01:30:58;;;;;;;;;10.50;9.75;;;;;-147.17;100.00;59696.56;5032866;28;51282;-48
2021/06/07 01:33:25;;;;;;;;;10.00;9.67;;;;;-147.17;100.00;59696.56;5035878;28;51025;-47
2021/06/07 01:35:56;;;;;;;;;10.33;10.33;;;;;-147.17;100.00;59696.56;5034799;28;51372;-48
2021/06/07 01:38:22;;;;;;;;;10.67;10.67;;;;;-147.17;100.00;59696.56;5033397;28;51971;-47
2021/06/07 01:40:51;;;;;;;;;11.00;11.00;;;;;-147.17;100.00;59696.56;5035214;28;51115;-48
2021/06/07 01:43:17;;;;;;;;;12.00;12.00;;;;;-147.17;100.00;59696.56;5035470;28;51004;-47
2021/06/07 01:45:48;;;;;;;;;10.00;9.67;;;;;-147.17;100.00;59696.56;5034300;28;51236;-47
2021/06/07 01:48:15;;;;;;;;;11.00;11.00;;;;;-147.17;100.00;59696.56;5034483;28;50980;-48
2021/06/07 01:50:41;;;;;;;;;10.00;10.00;;;;;-147.17;100.00;59696.56;5050026;28;51096;-46
2021/06/07 01:53:10;;;;;;;;;11.00;11.00;;;;;-147.17;100.00;59696.56;5035701;28;50956;-48
2021/06/07 01:55:42;;;;;;;;;8.67;8.33;;;;;-147.17;100.00;59696.56;5035073;28;51054;-47
2021/06/07 01:58:14;;;;;;;;;9.00;9.00;;;;;-147.17;100.00;59696.56;5034283;28;51838;-50
2021/06/07 02:00:52;;;;;;;;;11.00;11.00;;;;;-147.17;100.00;59696.56;5033612;28;50906;-48
2021/06/07 02:03:20;;;;;;;;;10.00;10.00;;;;;-147.17;100.00;59696.56;5035287;28;50957;-49
2021/06/07 02:05:49;;;;;;;;;12.00;12.00;;;;;-147.17;100.00;59696.56;5032158;28;51085;-49
2021/06/07 02:08:17;;;;;;;;;9.33;9.33;;;;;-147.17;100.00;59696.56;5034198;28;52772;-47
2021/06/07 02:10:49;;;;;;;;;11.00;9.75;;;;;-147.17;100.00;59696.56;5029212;28;51061;-46
2021/06/07 02:13:16;;;;;;;;;9.67;9.67;;;;;-147.17;100.00;59696.56;5033615;28;51341;-48
2021/06/07 02:15:42;;;;;;;;;11.00;11.00;;;;;-147.17;100.00;59696.56;5032019;28;51089;-50
2021/06/07 02:18:10;;;;;;;;;11.67;11.00;;;;;-147.17;100.00;59696.56;5030767;28;51783;-48
2021/06/07 02:20:37;;;;;;;;;13.00;12.00;;;;;-147.17;100.00;59696.56;5032709;28;51235;-47
2021/06/07 02:23:04;;;;;;;;;12.25;11.50;;;;;-147.17;100.00;59696.56;5030349;28;51063;-47
2021/06/07 02:25:30;;;;;;;;;13.00;13.00;;;;;-147.17;100.00;59696.56;5034200;28;51237;-46
2021/06/07 02:27:55;;;;;;;;;13.00;12.50;;;;;-147.17;100.00;59696.56;5033247;28;51203;-48
2021/06/07 02:30:24;;;;;;;;;13.75;12.75;;;;;-147.17;100.00;59696.56;5033050;28;50867;-51
2021/06/07 02:32:50;;;;;;;;;13.00;12.75;;;;;-147.17;100.00;59696.56;5033541;28;51292;-48
2021/06/07 02:35:18;;;;;;;;;14.50;13.75;;;;;-147.17;100.00;59696.56;5031241;28;50938;-51
2021/06/07 02:37:45;;;;;;;;;13.75;12.25;;;;;-147.17;100.00;59696.56;5033207;28;52833;-52
2021/06/07 02:40:13;;;;;;;;;14.00;13.00;;;;;-147.17;100.00;59696.56;5033306;28;51001;-49
2021/06/07 02:42:40;;;;;;;;;12.25;12.25;;;;;-147.17;100.00;59696.56;5031190;28;51136;-51
2021/06/07 02:45:08;;;;;;;;;13.50;12.25;;;;;-147.17;100.00;59696.56;5032982;28;51205;-51
2021/06/07 02:47:34;;;;;;;;;12.00;11.25;;;;;-147.17;100.00;59696.56;5064249;28;52432;-47
2021/06/07 02:49:59;;;;;;;;;14.50;13.00;;;;;-147.17;100.00;59696.56;5022134;28;51095;-52
2021/06/07 02:52:25;;;;;;;;;13.50;13.50;;;;;-147.17;100.00;59696.56;5031787;28;52832;-51
2021/06/07 02:54:51;;;;;;;;;11.75;11.25;;;;;-147.17;100.00;59696.56;5033157;28;51276;-51
2021/06/07 02:57:16;;;;;;;;;12.75;12.75;;;;;-147.17;100.00;59696.56;5033238;28;52602;-50
2021/06/07 02:59:41;;;;;;;;;15.00;15.00;;;;;-147.17;100.00;59696.56;5019290;28;50857;-49
2021/06/07 03:02:07;;;;;;;;;13.50;13.00;;;;;-147.17;100.00;59696.56;5032937;28;50970;-51
2021/06/07 03:04:32;;;;;;;;;10.50;10.25;;;;;-147.17;100.00;59696.56;5034262;28;51276;-51
2021/06/07 03:06:57;;;;;;;;;14.00;14.00;;;;;-147.17;100.00;59696.56;5031223;28;54699;-50
2021/06/07 03:09:23;;;;;;;;;14.00;13.00;;;;;-147.17;100.00;59696.56;5031146;28;51172;-50
2021/06/07 03:11:48;;;;;;;;;14.25;13.25;;;;;-147.17;100.00;59696.56;5034264;28;51106;-49
2021/06/07 03:14:14;;;;;;;;;14.25;13.00;;;;;-147.17;100.00;59696.56;5030242;28;51238;-48
2021/06/07 03:16:39;;;;;;;;;16.25;15.25;;;;;-147.17;100.00;59696.56;5034292;28;51939;-47
2021/06/07 03:19:04;;;;;;;;;18.00;17.25;;;;;-147.17;100.00;59696.56;5034186;28;51114;-49
2021/06/07 03:21:30;;;;;;;;;15.00;14.75;;;;;-147.17;100.00;59696.56;5033292;28;51071;-47
2021/06/07 03:23:56;;;;;;;;;17.75;17.00;;;;;-147.17;100.00;59696.56;5032871;28;51247;-48
2021/06/07 03:26:21;;;;;;;;;14.75;13.50;;;;;-147.17;100.00;59696.56;5034089;28;51047;-50
2021/06/07 03:28:47;;;;;;;;;15.00;15.00;;;;;-147.17;100.00;59696.56;5034013;28;51155;-47
2021/06/07 03:31:12;;;;;;;;;16.00;15.50;;;;;-147.17;100.00;59696.56;5031442;28;51140;-49
2021/06/07 03:33:38;;;;;;;;;15.75;15.75;;;;;-147.17;100.00;59696.56;5034156;28;51197;-48
2021/06/07 03:36:04;;;;;;;;;18.50;17.25;;;;;-147.17;100.00;59696.56;5033460;28;52003;-51
2021/06/07 03:38:31;;;;;;;;;18.25;17.00;;;;;-147.17;100.00;59696.56;5032633;28;50911;-51
2021/06/07 03:40:58;;;;;;;;;16.00;14.00;;;;;-147.17;100.00;59696.56;5030820;28;51128;-51
2021/06/07 03:43:29;;;;;;;;;17.50;14.50;;;;;-147.17;100.00;59696.56;5033662;28;51076;-50
2021/06/07 03:45:55;;;;;;;;;18.75;16.25;;;;;-147.17;100.00;59696.56;5033362;28;52309;-51
2021/06/07 03:48:21;;;;;;;;;14.50;14.50;;;;;-147.17;100.00;59696.56;5033686;28;51032;-51
2021/06/07 03:50:47;;;;;;;;;15.25;14.50;;;;;-147.17;100.00;59696.56;5032513;28;51204;-50
2021/06/07 03:53:13;;;;;;;;;14.00;13.25;;;;;-147.17;100.00;59696.56;5034106;28;51086;-49
2021/06/07 03:55:39;;;;;;;;;17.50;16.25;;;;;-147.17;100.00;59696.56;5032783;28;52604;-51
2021/06/07 03:58:05;;;;;;;;;15.00;14.00;;;;;-147.17;100.00;59696.56;5033898;28;51010;-51
2021/06/07 04:00:33;;;;;;;;;16.50;15.25;;;;;-147.17;100.00;59696.56;5032501;28;51110;-51
2021/06/07 04:02:59;;;;;;;;;16.00;15.25;;;;;-147.17;100.00;59696.56;5031609;28;51167;-50
2021/06/07 04:05:25;;;;;;;;;14.25;13.25;;;;;-147.17;100.00;59696.56;5032216;28;51083;-51
2021/06/07 04:07:51;;;;;;;;;17.75;17.75;;;;;-147.17;100.00;59696.56;5032536;28;50891;-51
2021/06/07 04:10:19;;;;;;;;;15.25;15.00;;;;;-147.17;100.00;59696.56;5032789;28;51282;-52
2021/06/07 04:12:46;;;;;;;;;18.25;17.25;;;;;-147.17;100.00;59696.56;5033429;28;51175;-50
2021/06/07 04:15:14;;;;;;;;;15.75;15.00;;;;;-147.17;100.00;59696.56;5033078;28;52052;-50
2021/06/07 04:17:44;;;;;;;;;19.75;15.25;;;;;-147.17;100.00;59696.56;5033216;28;51079;-50
2021/06/07 04:20:13;;;;;;;;;21.75;19.50;;;;;-147.17;100.00;59696.56;5028097;28;51157;-51
2021/06/07 04:22:39;;;;;;;;;19.75;18.75;;;;;-147.17;100.00;59696.56;5033390;28;51008;-48
2021/06/07 04:25:06;;;;;;;;;18.50;16.75;;;;;-147.17;100.00;59696.56;5032861;28;51814;-49
2021/06/07 04:27:32;;;;;;;;;18.75;16.50;;;;;-147.17;100.00;59696.56;5032781;28;50954;-49
2021/06/07 04:29:57;;;;;;;;;19.75;17.25;;;;;-147.17;100.00;59696.56;5032188;28;51079;-50
2021/06/07 04:32:23;;;;;;;;;18.25;18.25;;;;;-147.17;100.00;59696.56;5029529;28;51950;-49
2021/06/07 04:34:48;;;;;;;;;21.00;20.75;;;;;-147.17;100.00;59696.56;5032476;28;51915;-48
2021/06/07 04:37:14;;;;;;;;;18.00;16.50;;;;;-147.17;100.00;59696.56;5031941;28;51234;-47
2021/06/07 04:39:39;;;;;;;;;18.00;16.75;;;;;-147.17;100.00;59696.56;5032260;28;51236;-49
2021/06/07 04:42:06;;;;;;;;;19.00;18.00;;;;;-147.17;100.00;59696.56;5032146;28;50969;-49
2021/06/07 04:44:31;;;;;;;;;17.50;16.00;;;;;-147.17;100.00;59696.56;5032602;28;53368;-48
2021/06/07 04:46:57;;;;;;;;;18.00;16.50;;;;;-147.17;100.00;59696.56;5032859;28;51043;-48
2021/06/07 04:49:22;;;;;;;;;18.75;18.50;;;;;-147.17;100.00;59696.56;5031857;28;50938;-48
2021/06/07 04:51:48;;;;;;;;;15.25;15.25;;;;;-147.17;100.00;59696.56;5029477;28;51422;-50
2021/06/07 04:54:13;;;;;;;;;19.00;17.75;;;;;-147.17;100.00;59696.56;5032637;28;51890;-51
2021/06/07 04:56:38;;;;;;;;;13.50;13.50;;;;;-147.17;100.00;59696.56;5032730;28;50914;-52
2021/06/07 04:59:04;;;;;;;;;15.75;14.75;;;;;-147.17;100.00;59696.56;5032253;28;51095;-48
2021/06/07 05:01:30;;;;;;;;;16.25;14.75;;;;;-147.17;100.00;59696.56;5031124;28;50959;-48
2021/06/07 05:03:55;;;;;;;;;16.00;13.50;;;;;-147.17;100.00;59696.56;5029673;28;53160;-48
2021/06/07 05:06:20;;;;;;;;;14.75;14.75;;;;;-147.17;100.00;59696.56;5030492;28;50909;-48
2021/06/07 05:08:46;;;;;;;;;14.00;13.00;;;;;-147.17;100.00;59696.56;5032288;28;51585;-49
2021/06/07 05:11:11;;;;;;;;;16.00;15.00;;;;;-147.17;100.00;59696.56;5032663;28;51192;-51
2021/06/07 05:13:37;;;;;;;;;15.00;15.00;;;;;-147.17;100.00;59696.56;5032299;28;52900;-49
2021/06/07 05:16:03;;;;;;;;;12.00;12.00;;;;;-147.17;100.00;59696.56;5032370;28;50984;-50
2021/06/07 05:18:28;;;;;;;;;14.67;14.00;;;;;-147.17;100.00;59696.56;5031208;28;50943;-48
2021/06/07 05:20:54;;;;;;;;;13.00;13.00;;;;;-147.17;100.00;59696.56;5031530;28;51023;-49
2021/06/07 05:23:20;;;;;;;;;16.67;14.00;;;;;-147.17;100.00;59696.56;5019010;28;51813;-51
2021/06/07 05:25:45;;;;;;;;;15.50;14.50;;;;;-147.17;100.00;59696.56;5031926;28;51056;-50
2021/06/07 05:28:14;;;;;;;;;16.00;16.00;;;;;-147.17;100.00;59696.56;5032060;28;51238;-50
2021/06/07 05:30:41;;;;;;;;;14.00;14.00;;;;;-147.17;100.00;59696.56;5030427;28;51189;-51
2021/06/07 05:33:07;;;;;;;;;14.75;13.75;;;;;-147.17;100.00;59696.56;5030840;28;51178;-50
2021/06/07 05:35:40;;;;;;;;;12.00;11.33;;;;;-147.17;100.00;59696.56;5025916;28;51478;-48
2021/06/07 05:38:06;;;;;;;;;12.00;12.00;;;;;-147.17;100.00;59696.56;5026294;28;51052;-51
2021/06/07 05:40:34;;;;;;;;;13.33;12.67;;;;;-147.17;100.00;59696.56;5030046;28;51109;-48
2021/06/07 05:42:59;;;;;;;;;14.67;12.67;;;;;-147.17;100.00;59696.56;5031275;28;51302;-48
2021/06/07 05:45:26;;;;;;;;;14.33;13.67;;;;;-147.17;100.00;59696.56;5031526;28;50999;-49
2021/06/07 05:47:53;;;;;;;;;12.67;12.67;;;;;-147.17;100.00;59696.56;5031552;28;51112;-49
2021/06/07 05:50:20;;;;;;;;;14.00;14.00;;;;;-147.17;100.00;59696.56;5030298;28;51005;-49
2021/06/07 05:52:47;;;;;;;;;16.33;15.00;;;;;-147.17;100.00;59696.56;5031936;28;51948;-49
2021/06/07 05:55:18;;;;;;;;;16.00;15.00;;;;;-147.17;100.00;59696.56;5030339;28;51115;-51
2021/06/07 05:57:44;;;;;;;;;16.33;16.33;;;;;-147.17;100.00;59696.56;5031059;28;51134;-50
2021/06/07 06:00:11;;;;;;;;;21.33;19.67;;;;;-147.17;100.00;59696.56;5031912;28;50943;-46
2021/06/07 06:02:36;;;;;;;;;18.33;16.67;;;;;-147.17;100.00;59696.56;5031406;28;50946;-51
2021/06/07 06:05:03;;;;;;;;;15.67;15.67;;;;;-147.17;100.00;59696.56;5030680;28;50970;-46
2021/06/07 06:07:28;;;;;;;;;18.67;18.67;;;;;-147.17;100.00;59696.56;5031757;28;50992;-50
2021/06/07 06:09:54;;;;;;;;;15.00;15.00;;;;;-147.17;100.00;59696.56;5031475;28;51064;-49
2021/06/07 06:12:19;;;;;;;;;16.00;15.00;;;;;-147.17;100.00;59696.56;5030952;28;51107;-48
2021/06/07 06:14:44;;;;;;;;;15.67;15.67;;;;;-147.17;100.00;59696.56;5034137;28;51129;-50
2021/06/07 06:17:10;;;;;;;;;13.00;12.33;;;;;-147.17;100.00;59696.56;5034798;28;51264;-50
2021/06/07 06:19:35;;;;;;;;;14.00;14.00;;;;;-147.17;100.00;59696.56;5034486;28;51302;-47
2021/06/07 06:22:04;;;;;;;;;13.00;13.00;;;;;-147.17;100.00;59696.56;5032984;28;51360;-48
2021/06/07 06:24:29;;;;;;;;;16.67;15.00;;;;;-147.17;100.00;59696.56;5033059;28;50856;-53
2021/06/07 06:26:55;;;;;;;;;14.33;14.33;;;;;-147.17;100.00;59696.56;5034054;28;51021;-51
2021/06/07 06:29:20;;;;;;;;;15.33;14.00;;;;;-147.17;100.00;59696.56;5033038;28;51081;-47
2021/06/07 06:31:46;;;;;;;;;14.00;14.00;;;;;-147.17;100.00;59696.56;5023473;28;52769;-50
2021/06/07 06:34:11;;;;;;;;;15.00;15.00;;;;;-147.17;100.00;59696.56;5028858;28;52214;-53
2021/06/07 06:36:37;;;;;;;;;15.67;15.33;;;;;-147.17;100.00;59696.56;5027640;28;51225;-51
2021/06/07 06:39:04;;;;;;;;;14.33;13.33;;;;;-147.17;100.00;59696.56;5033494;28;51261;-52
2021/06/07 06:41:30;;;;;;;;;13.00;12.33;;;;;-147.17;100.00;59696.56;5033026;28;52613;-50
2021/06/07 06:43:56;;;;;;;;;15.67;14.33;;;;;-147.17;100.00;59696.56;5033635;28;51067;-52
2021/06/07 06:46:21;;;;;;;;;14.33;14.33;;;;;-147.17;100.00;59696.56;5033158;28;51201;-53
2021/06/07 06:48:47;;;;;;;;;13.00;13.00;;;;;-147.17;100.00;59696.56;5032250;28;51064;-53
2021/06/07 06:51:12;;;;;;;;;13.00;13.00;;;;;-147.17;100.00;59696.56;5033392;28;51840;-52
2021/06/07 06:53:38;;;;;;;;;13.67;13.33;;;;;-147.17;100.00;59696.56;5033099;28;51007;-47
2021/06/07 06:56:03;;;;;;;;;14.33;14.33;;;;;-147.17;100.00;59696.56;5033689;28;51018;-51
2021/06/07 06:58:29;;;;;;;;;14.00;13.33;;;;;-147.17;100.00;59696.56;5033877;28;51269;-50
2021/06/07 07:00:54;;;;;;;;;11.00;11.00;;;;;-147.17;100.00;59696.56;5033367;28;51686;-50
2021/06/07 07:03:20;;;;;;;;;14.00;14.00;;;;;-147.17;100.00;59696.56;5032793;28;51116;-50
2021/06/07 07:05:47;;;;;;;;;16.33;15.67;;;;;-147.17;100.00;59696.56;5033331;28;50956;-49
2021/06/07 07:08:13;;;;;;;;;16.33;15.33;;;;;-147.17;100.00;59696.56;5032993;28;51251;-52
2021/06/07 07:10:41;;;;;;;;;11.00;11.00;;;;;-147.17;100.00;59696.56;5032883;28;52276;-52
2021/06/07 07:13:07;;;;;;;;;13.00;13.00;;;;;-147.17;100.00;59696.56;5033055;28;51047;-52
2021/06/07 07:15:33;;;;;;;;;14.00;14.00;;;;;-147.17;100.00;59696.56;5033364;28;51097;-47
2021/06/07 07:17:59;;;;;;;;;14.00;13.00;;;;;-147.17;100.00;59696.56;5033156;28;51323;-51
2021/06/07 07:20:24;;;;;;;;;15.00;14.00;;;;;-147.17;100.00;59696.56;5030835;28;51006;-52
2021/06/07 07:22:50;;;;;;;;;10.33;10.33;;;;;-147.17;100.00;59696.56;5033106;28;51291;-50
2021/06/07 07:25:16;;;;;;;;;10.00;10.00;;;;;-147.17;100.00;59696.56;5032623;28;51234;-53
2021/06/07 07:27:42;;;;;;;;;13.33;12.33;;;;;-147.17;100.00;59696.56;5033245;28;50940;-48
2021/06/07 07:30:17;;;;;;;;;9.67;9.67;;;;;-147.17;100.00;59696.56;5032222;28;50969;-50
2021/06/07 07:32:45;;;;;;;;;11.00;11.00;;;;;-147.17;100.00;59696.56;5032403;28;51187;-49
2021/06/07 07:35:11;;;;;;;;;13.00;12.00;;;;;-147.17;100.00;59696.56;5030539;28;51260;-51
2021/06/07 07:37:36;;;;;;;;;12.33;12.33;;;;;-147.17;100.00;59696.56;5032546;28;51268;-51
2021/06/07 07:40:08;;;;;;;;;13.00;12.33;;;;;-147.17;100.00;59696.56;5031946;28;52780;-50
2021/06/07 07:42:34;;;;;;;;;10.50;10.50;;;;;-147.17;100.00;59696.56;5032827;28;51039;-50
2021/06/07 07:45:01;;;;;;;;;11.00;10.00;;;;;-147.17;100.00;59696.56;5032479;28;51183;-51
2021/06/07 07:47:28;;;;;;;;;12.67;11.67;;;;;-147.17;100.00;59696.56;5032891;28;51363;-50
2021/06/07 07:49:53;;;;;;;;;12.67;11.00;;;;;-147.17;100.00;59696.56;5030887;28;52168;-52
2021/06/07 07:52:23;;;;;;;;;9.50;9.50;;;;;-147.17;100.00;59696.56;5031537;28;51083;-49
2021/06/07 07:54:48;;;;;;;;;14.00;11.67;;;;;-147.17;100.00;59696.56;5032518;28;51012;-50
2021/06/07 07:57:14;;;;;;;;;10.67;9.00;;;;;-147.17;100.00;59696.56;5032644;28;51421;-51
2021/06/07 07:59:39;;;;;;;;;10.67;10.67;;;;;-147.17;100.00;59696.56;5032247;28;51712;-50
2021/06/07 08:02:05;;;;;;;;;13.25;12.25;;;;;-147.17;100.00;59696.56;5032260;28;51697;-49
2021/06/07 08:04:30;;;;;;;;;12.67;12.67;;;;;-147.17;100.00;59696.56;5031853;28;51364;-48
2021/06/07 08:06:56;;;;;;;;;13.33;12.67;;;;;-147.17;100.00;59696.56;5032330;28;51031;-51
2021/06/07 08:09:21;;;;;;;;;10.25;10.00;;;;;-147.17;100.00;59696.56;5031570;28;51640;-49
2021/06/07 08:11:46;;;;;;;;;12.25;11.25;;;;;-147.17;100.00;59696.56;5029107;28;51208;-51
2021/06/07 08:14:12;;;;;;;;;9.75;9.00;;;;;-147.17;100.00;59696.56;5032623;28;50938;-55
2021/06/07 08:16:37;;;;;;;;;11.00;10.25;;;;;-147.17;100.00;59696.56;5032860;28;51389;-52
2021/06/07 08:19:03;;;;;;;;;9.75;9.25;;;;;-147.17;100.00;59696.56;5031539;28;50977;-52
2021/06/07 08:21:28;;;;;;;;;9.75;9.75;;;;;-147.17;100.00;59696.56;5030381;28;50997;-49
2021/06/07 08:23:53;;;;;;;;;10.67;10.00;;;;;-147.17;100.00;59696.56;5032506;28;51211;-48
2021/06/07 08:26:19;;;;;;;;;9.75;9.50;;;;;-147.17;100.00;59696.56;5031736;28;51571;-48
2021/06/07 08:28:44;;;;;;;;;11.50;11.00;;;;;-147.17;100.00;59696.56;5031900;28;51805;-46
2021/06/07 08:31:09;;;;;;;;;8.50;8.50;;;;;-147.17;100.00;59696.56;5032012;28;51012;-46
2021/06/07 08:33:36;;;;;;;;;8.50;7.25;;;;;-147.17;100.00;59696.56;5026872;28;51000;-50
2021/06/07 08:36:05;;;;;;;;;9.50;9.50;;;;;-147.17;100.00;59696.56;5032273;28;51177;-52
2021/06/07 08:38:31;;;;;;;;;9.00;9.00;;;;;-147.17;100.00;59696.56;5024991;28;51898;-48
2021/06/07 08:40:56;;;;;;;;;11.50;11.50;;;;;-147.17;100.00;59696.56;5030011;28;51202;-47
2021/06/07 08:43:23;;;;;;;;;10.75;10.00;;;;;-147.17;100.00;59696.56;5031620;28;51392;-49
2021/06/07 08:45:50;;;;;;;;;10.75;9.75;;;;;-147.17;100.00;59696.56;5031899;28;51296;-47
2021/06/07 08:48:16;;;;;;;;;8.50;8.50;;;;;-147.17;100.00;59696.56;5022064;28;51762;-47
2021/06/07 08:50:42;;;;;;;;;9.75;9.00;;;;;-147.17;100.00;59696.56;5037954;28;51175;-46
2021/06/07 08:53:07;;;;;;;;;10.50;8.75;;;;;-147.17;100.00;59696.56;5031132;28;51203;-46
2021/06/07 08:55:33;;;;;;;;;10.25;10.25;;;;;-147.17;100.00;59696.56;5031721;28;50918;-47
2021/06/07 08:57:59;;;;;;;;;9.75;9.75;;;;;-147.17;100.00;59696.56;5023219;28;51841;-50
2021/06/07 09:00:27;;;;;;;;;8.50;8.50;;;;;-147.17;100.00;59696.56;5021878;28;51175;-46
2021/06/07 09:03:08;;;;;;;;;15.50;15.50;;;;;-147.17;100.00;59696.56;5031321;28;51084;-47
2021/06/07 09:05:35;;;;;;;;;9.00;9.00;;;;;-147.17;100.00;59696.56;5028667;28;51064;-46
2021/06/07 09:08:07;;;;;;;;;11.25;10.75;;;;;-147.17;100.00;59696.56;5028464;28;52180;-48
2021/06/07 09:10:41;;;;;;;;;10.75;10.75;;;;;-147.17;100.00;59696.56;5020040;28;51057;-48
2021/06/07 09:13:09;;;;;;;;;9.00;9.00;;;;;-147.17;100.00;59696.56;5025857;28;51088;-46
2021/06/07 09:15:34;;;;;;;;;11.75;11.75;;;;;-147.17;100.00;59696.56;5028389;28;51432;-45
2021/06/07 09:18:01;;;;;;;;;11.25;10.50;;;;;-147.17;100.00;59696.56;5029663;28;51586;-45
2021/06/07 09:20:28;;;;;;;;;9.00;9.00;;;;;-147.17;100.00;59696.56;5026825;28;51205;-46
2021/06/07 09:23:00;;;;;;;;;9.50;9.50;;;;;-147.17;100.00;59696.56;5027223;28;51175;-47
2021/06/07 09:25:29;;;;;;;;;8.25;8.25;;;;;-147.17;100.00;59696.56;5031260;28;51097;-48
2021/06/07 09:28:04;;;;;;;;;8.00;8.00;;;;;-147.17;100.00;59696.56;5030799;28;50939;-47
2021/06/07 09:30:42;;;;;;;;;8.00;8.00;;;;;-147.17;100.00;59696.56;5026708;28;50969;-50
2021/06/07 09:33:19;;;;;;;;;6.67;6.67;;;;;-147.17;100.00;59696.56;5030141;28;50882;-47
2021/06/07 09:35:49;;;;;;;;;8.00;7.50;;;;;-147.17;100.00;59696.56;5031030;28;51237;-44
2021/06/07 09:38:14;;;;;;;;;6.75;6.75;;;;;-147.17;100.00;59696.56;5030816;28;52136;-44
2021/06/07 09:40:39;;;;;;;;;7.50;7.50;;;;;-147.17;100.00;59696.56;5029478;28;50942;-49
2021/06/07 09:43:06;;;;;;;;;6.50;6.25;;;;;-147.17;100.00;59696.56;5026406;28;51004;-45
2021/06/07 09:45:49;;;;;;;;;6.75;6.75;;;;;-147.17;100.00;59696.56;5031282;28;50904;-48
2021/06/07 09:48:16;;;;;;;;;7.75;7.50;;;;;-147.17;100.00;59696.56;5031093;28;51730;-50
2021/06/07 09:50:54;;;;;;;;;3.50;3.50;;;;;-147.17;100.00;59696.56;5032410;28;51018;-51
2021/06/07 09:53:48;;;;;;;;;4.00;4.00;;;;;-147.17;100.00;59696.56;5034657;28;51049;-48
2021/06/07 09:56:15;;;;;;;;;3.75;3.75;;;;;-147.17;100.00;59696.56;5033034;28;51361;-49
2021/06/07 09:58:41;;;;;;;;;6.00;5.50;;;;;-147.17;100.00;59696.56;5034176;28;51095;-48
2021/06/07 10:01:18;;;;;;;;;7.50;7.50;;;;;-147.17;100.00;59696.56;5032788;28;51097;-50
2021/06/07 10:03:50;;;;;;;;;5.75;5.25;;;;;-147.17;100.00;59696.56;5029253;28;51323;-47
2021/06/07 10:06:29;;;;;;;;;6.50;6.50;;;;;-147.17;100.00;59696.56;5034315;28;51104;-50
2021/06/07 10:08:59;;;;;;;;;5.50;4.50;;;;;-147.17;100.00;59696.56;5033548;28;51806;-49
2021/06/07 10:11:39;;;;;;;;;5.50;5.50;;;;;-147.17;100.00;59696.56;5033597;28;51166;-47
2021/06/07 10:14:21;;;;;;;;;4.25;4.25;;;;;-147.17;100.00;59696.56;5033718;28;50881;-46
2021/06/07 10:16:59;;;;;;;;;7.00;7.00;;;;;-147.17;100.00;59696.56;5034020;28;51223;-46
2021/06/07 10:19:41;;;;;;;;;6.25;6.25;;;;;-147.17;100.00;59696.56;5029746;28;51831;-47
2021/06/07 10:22:06;;;;;;;;;8.25;8.00;;;;;-147.17;100.00;59696.56;5033847;28;51065;-47
2021/06/07 10:24:32;;;;;;;;;6.50;6.50;;;;;-147.17;100.00;59696.56;5030671;28;51193;-48
2021/06/07 10:26:58;;;;;;;;;9.00;9.00;;;;;-147.17;100.00;59696.56;5032938;28;51203;-51
2021/06/07 10:29:32;;;;;;;;;7.75;7.75;;;;;-147.17;100.00;59696.56;5033401;28;51903;-47
2021/06/07 10:32:17;;;;;;;;;6.25;6.25;;;;;-147.17;100.00;59696.56;5033656;28;51023;-47
2021/06/07 10:34:45;;;;;;;;;6.25;6.00;;;;;-147.17;100.00;59696.56;5033240;28;51091;-48
2021/06/07 10:37:11;;;;;;;;;7.75;7.75;;;;;-147.17;100.00;59696.56;5033411;28;50955;-46
2021/06/07 10:39:36;;;;;;;;;7.50;7.50;;;;;-147.17;100.00;59696.56;5032792;28;52082;-48
2021/06/07 10:42:07;;;;;;;;;9.00;8.00;;;;;-147.17;100.00;59696.56;5033419;28;51006;-46
2021/06/07 10:44:45;;;;;;;;;10.00;9.25;;;;;-147.17;100.00;59696.56;5033344;28;51089;-48
2021/06/07 10:47:20;;;;;;;;;11.00;9.00;;;;;-147.17;100.00;59696.56;5032831;28;50860;-48
2021/06/07 10:50:09;;;;;;;;;9.25;9.00;;;;;-147.17;100.00;59696.56;5032076;28;52096;-50
2021/06/07 10:53:01;;;;;;;;;9.00;9.00;;;;;-147.17;100.00;59696.56;5033056;28;51123;-46
2021/06/07 10:55:34;;;;;;;;;9.00;9.00;;;;;-147.17;100.00;59696.56;5032608;28;50974;-48
2021/06/07 10:58:05;;;;;;;;;10.75;10.50;;;;;-147.17;100.00;59696.56;5032835;28;51354;-51